Time;durP1;ratioP1;P1;durP2;ratioP2;P2;SDS_P1;SDS_P2;PMS_P1;PMS_P2;Temp;Humidity;BMP_temperature;BMP_pressure;BME280_temperature;BME280_humidity;BME280_pressure;Samples;Min_cycle;Max_cycle;Signal;HPM_P1;HPM_P2
2022/03/14 00:01:11;;;;;;;8.40;6.88;;;4.80;82.10;;;;;;5070299;28;20254;-86
2022/03/14 00:03:48;;;;;;;8.57;5.85;;;4.80;82.00;;;;;;5069646;28;20208;-83
2022/03/14 00:06:17;;;;;;;8.68;6.05;;;4.80;81.80;;;;;;5070030;28;20345;-86
2022/03/14 00:08:45;;;;;;;7.32;6.63;;;4.80;82.20;;;;;;5074240;28;20265;-82
2022/03/14 00:11:15;;;;;;;7.95;6.18;;;4.80;82.00;;;;;;5072295;28;20197;-85
2022/03/14 00:13:46;;;;;;;5.75;5.25;;;4.80;81.80;;;;;;5068393;28;20209;-84
2022/03/14 00:16:22;;;;;;;7.95;6.78;;;4.80;82.10;;;;;;5069920;28;20823;-85
2022/03/14 00:18:53;;;;;;;8.80;6.75;;;4.80;82.00;;;;;;5069183;28;20268;-85
2022/03/14 00:21:23;;;;;;;8.48;6.13;;;4.70;82.20;;;;;;5069458;28;20201;-86
2022/03/14 00:23:51;;;;;;;7.47;6.55;;;4.70;82.00;;;;;;5070528;28;20205;-84
2022/03/14 00:26:19;;;;;;;8.00;5.80;;;4.60;82.20;;;;;;5069719;28;20244;-86
2022/03/14 00:28:48;;;;;;;8.00;5.97;;;4.60;82.40;;;;;;5072127;28;20209;-86
2022/03/14 00:31:17;;;;;;;9.20;6.30;;;4.60;82.50;;;;;;5069516;28;20201;-85
2022/03/14 00:33:45;;;;;;;9.10;5.93;;;4.50;82.60;;;;;;5077941;28;20216;-84
2022/03/14 00:36:13;;;;;;;7.97;6.05;;;4.40;82.60;;;;;;5070539;28;20692;-85
2022/03/14 00:38:41;;;;;;;8.80;6.93;;;4.50;82.80;;;;;;5069011;28;20193;-85
2022/03/14 00:41:09;;;;;;;8.35;6.22;;;4.40;82.90;;;;;;5068859;28;20244;-85
2022/03/14 00:43:38;;;;;;;11.20;6.65;;;4.30;82.70;;;;;;5067594;28;20215;-84
2022/03/14 00:46:06;;;;;;;9.00;6.55;;;4.40;83.00;;;;;;5068889;28;20220;-84
2022/03/14 00:48:36;;;;;;;8.13;6.15;;;4.40;82.90;;;;;;5070738;28;20228;-82
2022/03/14 00:51:06;;;;;;;8.00;6.32;;;4.40;83.00;;;;;;5067826;28;20212;-85
2022/03/14 00:53:34;;;;;;;10.95;6.20;;;4.40;83.20;;;;;;5066657;28;20193;-84
2022/03/14 00:56:03;;;;;;;11.05;6.90;;;4.40;83.00;;;;;;5067077;28;20252;-85
2022/03/14 00:58:32;;;;;;;7.85;6.20;;;4.40;83.00;;;;;;5066290;28;20766;-83
2022/03/14 01:01:00;;;;;;;8.63;6.43;;;4.40;83.00;;;;;;5066827;28;20193;-85
2022/03/14 01:03:28;;;;;;;11.85;6.20;;;4.40;83.00;;;;;;5069385;28;20208;-85
2022/03/14 01:05:59;;;;;;;7.68;5.78;;;4.30;83.00;;;;;;5080543;28;20303;-87
2022/03/14 01:08:27;;;;;;;9.00;6.55;;;4.40;83.10;;;;;;5097141;28;20213;-85
2022/03/14 01:10:55;;;;;;;7.03;6.25;;;4.30;83.00;;;;;;5076859;28;20220;-87
2022/03/14 01:13:23;;;;;;;9.57;6.88;;;4.30;83.20;;;;;;5072371;28;20250;-90
2022/03/14 01:15:51;;;;;;;6.90;5.95;;;4.30;83.10;;;;;;5073829;28;20875;-88
2022/03/14 01:18:18;;;;;;;8.90;6.28;;;4.30;83.20;;;;;;5067592;28;20220;-85
2022/03/14 01:20:46;;;;;;;7.72;6.00;;;4.30;83.10;;;;;;5067173;28;20203;-87
2022/03/14 01:23:16;;;;;;;10.20;6.40;;;4.30;83.30;;;;;;5068682;28;20219;-85
2022/03/14 01:25:45;;;;;;;6.05;5.32;;;4.30;83.30;;;;;;5079105;28;20217;-85
2022/03/14 01:28:13;;;;;;;9.18;6.00;;;4.30;83.00;;;;;;5070946;28;20326;-87
2022/03/14 01:30:44;;;;;;;8.02;6.45;;;4.30;83.20;;;;;;5067024;28;20201;-85
2022/03/14 01:33:13;;;;;;;6.70;6.00;;;4.30;83.30;;;;;;5067298;28;20228;-86
2022/03/14 01:35:41;;;;;;;7.15;6.18;;;4.30;83.40;;;;;;5066154;28;20278;-88
2022/03/14 01:38:11;;;;;;;7.35;5.90;;;4.20;83.40;;;;;;5067538;28;20281;-86
2022/03/14 01:40:40;;;;;;;8.70;6.05;;;4.20;83.30;;;;;;5067738;28;20203;-86
2022/03/14 01:43:43;;;;;;;9.43;6.57;;;4.20;83.30;;;;;;5067442;28;20197;-89
2022/03/14 01:46:21;;;;;;;7.72;7.03;;;4.10;83.40;;;;;;5060815;28;20220;-88
2022/03/14 01:48:56;;;;;;;8.98;6.35;;;4.10;83.40;;;;;;5071040;28;20805;-86
2022/03/14 01:51:27;;;;;;;6.05;5.55;;;4.10;83.50;;;;;;5070750;28;20209;-88
2022/03/14 01:57:13;;;;;;;9.48;6.47;;;4.00;83.60;;;;;;5066713;28;20670;-86
2022/03/14 01:59:54;;;;;;;8.23;6.43;;;4.00;83.90;;;;;;5068065;28;20805;-86
2022/03/14 02:02:38;;;;;;;12.73;6.90;;;4.00;83.50;;;;;;5067915;28;20250;-86
2022/03/14 02:05:15;;;;;;;8.77;7.70;;;3.80;83.70;;;;;;5067388;28;20722;-87
2022/03/14 02:07:52;;;;;;;8.13;6.10;;;3.90;83.90;;;;;;5068888;28;20238;-85
2022/03/14 02:10:20;;;;;;;7.82;6.18;;;3.80;84.00;;;;;;5072685;28;20204;-87
2022/03/14 02:12:50;;;;;;;10.70;7.35;;;3.80;84.00;;;;;;5074438;28;20412;-85
2022/03/14 02:15:20;;;;;;;8.80;6.70;;;3.80;84.20;;;;;;5070306;28;20201;-85
2022/03/14 02:17:48;;;;;;;11.38;8.30;;;3.70;84.20;;;;;;5074362;28;20300;-85
2022/03/14 02:20:18;;;;;;;7.47;6.68;;;3.70;84.30;;;;;;5070851;28;20197;-84
2022/03/14 02:22:46;;;;;;;7.72;6.45;;;3.70;84.40;;;;;;5071206;28;20216;-87
2022/03/14 02:25:14;;;;;;;10.63;7.25;;;3.60;84.10;;;;;;5070020;28;20673;-87
2022/03/14 02:27:42;;;;;;;10.02;7.43;;;3.60;84.30;;;;;;5070643;28;20209;-87
2022/03/14 02:30:11;;;;;;;10.07;7.57;;;3.60;84.50;;;;;;5070764;28;20357;-85
2022/03/14 02:32:41;;;;;;;7.75;6.53;;;3.50;84.50;;;;;;5071293;28;20266;-85
2022/03/14 02:35:10;;;;;;;11.35;8.20;;;3.50;84.60;;;;;;5069517;28;20212;-86
2022/03/14 02:37:40;;;;;;;12.02;7.18;;;3.50;84.70;;;;;;5070876;28;20452;-88
2022/03/14 02:40:10;;;;;;;9.02;7.15;;;3.40;84.60;;;;;;5069374;28;20188;-87
2022/03/14 02:42:38;;;;;;;8.20;6.20;;;3.30;84.50;;;;;;5069870;28;20217;-88
2022/03/14 02:45:09;;;;;;;10.25;7.22;;;3.40;84.80;;;;;;5068574;28;20640;-88
2022/03/14 02:47:38;;;;;;;8.30;6.80;;;3.40;84.70;;;;;;5068524;28;20196;-86
2022/03/14 02:50:07;;;;;;;9.88;7.35;;;3.40;84.90;;;;;;5069696;28;20225;-87
2022/03/14 02:52:35;;;;;;;14.95;7.57;;;3.40;84.90;;;;;;5070707;28;20427;-85
2022/03/14 02:55:10;;;;;;;12.70;7.15;;;3.40;84.80;;;;;;5067971;28;20205;-83
2022/03/14 02:57:39;;;;;;;8.77;6.25;;;3.40;84.90;;;;;;5071993;28;20216;-90
2022/03/14 03:00:10;;;;;;;9.82;6.72;;;3.30;84.90;;;;;;5074875;28;20392;-88
2022/03/14 03:02:38;;;;;;;10.10;6.88;;;3.30;85.00;;;;;;5074839;28;20236;-89
2022/03/14 03:05:06;;;;;;;7.78;6.40;;;3.30;85.10;;;;;;5074103;28;20259;-89
2022/03/14 03:07:36;;;;;;;11.05;6.30;;;3.30;85.40;;;;;;5069673;28;20217;-87
2022/03/14 03:10:07;;;;;;;10.50;7.32;;;3.30;85.30;;;;;;5072429;28;20201;-90
2022/03/14 03:12:37;;;;;;;9.25;6.72;;;3.20;85.30;;;;;;5072050;28;20272;-90
2022/03/14 03:15:07;;;;;;;9.77;7.60;;;3.20;85.40;;;;;;5071338;28;20856;-89
2022/03/14 03:17:35;;;;;;;7.95;6.40;;;3.20;85.60;;;;;;5076255;28;20258;-89
2022/03/14 03:20:04;;;;;;;10.90;7.18;;;3.10;85.60;;;;;;5080318;28;20254;-90
2022/03/14 03:22:32;;;;;;;7.13;6.43;;;3.10;85.70;;;;;;5071584;28;20215;-91
2022/03/14 03:25:00;;;;;;;7.53;6.70;;;3.10;85.90;;;;;;5074726;28;20270;-90
2022/03/14 03:27:29;;;;;;;9.40;7.28;;;3.10;86.20;;;;;;5073572;28;20220;-88
2022/03/14 03:29:57;;;;;;;7.15;6.05;;;3.10;86.20;;;;;;5074020;28;20309;-89
2022/03/14 03:32:25;;;;;;;9.63;7.05;;;3.00;86.10;;;;;;5073404;28;20189;-91
2022/03/14 03:34:53;;;;;;;11.65;7.22;;;3.00;86.30;;;;;;5075133;28;20573;-85
2022/03/14 03:37:22;;;;;;;7.22;6.38;;;3.00;86.10;;;;;;5074447;28;20304;-89
2022/03/14 03:39:50;;;;;;;10.48;7.70;;;3.00;86.40;;;;;;5074318;28;20846;-89
2022/03/14 03:42:18;;;;;;;9.13;6.95;;;3.00;86.60;;;;;;5074225;28;20197;-90
2022/03/14 03:44:47;;;;;;;12.00;7.67;;;3.00;86.70;;;;;;4724166;28;10000423;-90
2022/03/14 03:47:16;;;;;;;9.93;6.43;;;2.90;86.60;;;;;;5071248;28;20308;-87
2022/03/14 03:49:44;;;;;;;12.90;7.40;;;2.90;86.80;;;;;;5073065;28;20216;-89
2022/03/14 03:52:12;;;;;;;12.75;7.30;;;2.90;86.70;;;;;;5071064;28;20205;-89
2022/03/14 03:54:40;;;;;;;12.00;7.35;;;2.80;86.70;;;;;;5069424;28;20221;-88
2022/03/14 03:57:08;;;;;;;6.97;5.95;;;2.90;86.70;;;;;;5066975;28;20542;-87
2022/03/14 03:59:36;;;;;;;9.02;7.32;;;2.80;86.70;;;;;;5068677;28;20243;-87
2022/03/14 04:02:06;;;;;;;13.98;7.75;;;2.80;86.80;;;;;;5069655;28;20219;-89
2022/03/14 04:04:37;;;;;;;12.15;8.10;;;2.80;87.00;;;;;;5070460;28;20272;-87
2022/03/14 04:07:08;;;;;;;9.73;7.53;;;2.80;87.10;;;;;;5069908;28;20225;-89
2022/03/14 04:09:36;;;;;;;12.05;8.70;;;2.70;87.00;;;;;;5072089;28;20207;-89
2022/03/14 04:12:05;;;;;;;12.32;8.23;;;2.70;87.10;;;;;;5079471;28;20695;-88
2022/03/14 04:14:33;;;;;;;12.35;8.35;;;2.60;87.10;;;;;;5067105;28;20201;-87
2022/03/14 04:17:04;;;;;;;11.23;7.57;;;2.70;87.40;;;;;;5067425;28;20252;-88
2022/03/14 04:19:41;;;;;;;10.65;7.25;;;2.70;87.30;;;;;;5068690;28;20197;-88
2022/03/14 04:22:09;;;;;;;12.75;8.57;;;2.60;87.60;;;;;;5073931;28;20205;-88
2022/03/14 04:24:37;;;;;;;11.20;7.60;;;2.60;88.00;;;;;;5077186;28;20679;-88
2022/03/14 04:27:06;;;;;;;8.07;6.85;;;2.60;87.90;;;;;;5069247;28;20642;-90
2022/03/14 04:29:34;;;;;;;11.00;7.03;;;2.60;87.90;;;;;;5072123;28;20258;-88
2022/03/14 04:32:02;;;;;;;12.18;8.05;;;2.50;88.60;;;;;;5072320;28;20225;-87
2022/03/14 04:34:31;;;;;;;12.60;9.05;;;2.50;88.00;;;;;;5068930;28;20800;-87
2022/03/14 04:37:01;;;;;;;12.18;7.32;;;2.50;88.10;;;;;;5068837;28;20599;-87
2022/03/14 04:39:29;;;;;;;13.85;8.75;;;2.50;88.10;;;;;;5069598;28;20220;-88
2022/03/14 04:41:57;;;;;;;10.95;8.07;;;2.40;88.30;;;;;;5073925;28;20197;-90
2022/03/14 04:44:25;;;;;;;12.05;8.60;;;2.40;88.40;;;;;;5074074;28;20242;-89
2022/03/14 04:46:53;;;;;;;11.43;8.10;;;2.40;88.40;;;;;;5075011;28;20308;-90
2022/03/14 04:49:21;;;;;;;8.88;7.35;;;2.30;88.30;;;;;;5073857;28;20177;-88
2022/03/14 04:51:50;;;;;;;9.95;7.13;;;2.30;88.50;;;;;;5074280;28;20776;-88
2022/03/14 04:54:19;;;;;;;9.43;7.65;;;2.30;88.80;;;;;;5074330;28;20264;-86
2022/03/14 04:56:47;;;;;;;9.30;8.07;;;2.30;89.00;;;;;;5074261;28;20271;-87
2022/03/14 04:59:15;;;;;;;11.20;8.88;;;2.20;88.90;;;;;;5074448;28;20217;-89
2022/03/14 05:01:43;;;;;;;11.98;7.53;;;2.20;89.10;;;;;;5074444;28;20201;-88
2022/03/14 05:04:12;;;;;;;8.90;7.35;;;2.20;89.30;;;;;;5075095;28;20296;-89
2022/03/14 05:06:40;;;;;;;13.20;8.40;;;2.20;89.00;;;;;;5071395;28;20317;-89
2022/03/14 05:09:08;;;;;;;12.48;9.30;;;2.10;89.10;;;;;;5074827;28;20224;-88
2022/03/14 05:11:38;;;;;;;9.25;7.80;;;2.10;89.30;;;;;;5074351;28;20223;-90
2022/03/14 05:14:09;;;;;;;12.18;8.30;;;2.10;89.70;;;;;;5074611;28;20216;-86
2022/03/14 05:16:37;;;;;;;12.65;7.55;;;2.10;89.40;;;;;;5070840;28;20224;-87
2022/03/14 05:19:05;;;;;;;11.65;9.23;;;2.10;89.60;;;;;;5071911;28;20764;-87
2022/03/14 05:21:34;;;;;;;10.63;8.75;;;2.00;89.50;;;;;;5072663;28;20234;-90
2022/03/14 05:24:02;;;;;;;11.65;8.90;;;2.00;89.50;;;;;;5074853;28;20204;-91
2022/03/14 05:26:30;;;;;;;12.32;8.95;;;2.00;89.50;;;;;;5078531;28;20314;-90
2022/03/14 05:28:59;;;;;;;12.68;8.85;;;2.00;89.50;;;;;;5075541;28;20289;-90
2022/03/14 05:31:27;;;;;;;13.75;8.30;;;2.00;89.60;;;;;;5081571;28;20201;-88
2022/03/14 05:33:55;;;;;;;12.07;8.85;;;2.00;89.50;;;;;;5075638;28;20197;-89
2022/03/14 05:36:24;;;;;;;11.30;8.38;;;2.00;89.50;;;;;;5073967;28;20233;-88
2022/03/14 05:38:52;;;;;;;13.25;8.52;;;2.00;89.60;;;;;;5073307;28;20216;-90
2022/03/14 05:41:20;;;;;;;13.52;7.85;;;2.00;89.70;;;;;;5074244;28;20208;-89
2022/03/14 05:43:48;;;;;;;11.95;9.40;;;2.00;89.70;;;;;;5073863;28;20740;-88
2022/03/14 05:46:17;;;;;;;13.43;8.80;;;2.00;90.40;;;;;;5073732;28;20227;-89
2022/03/14 05:48:45;;;;;;;15.70;9.95;;;2.00;92.10;;;;;;5075234;28;20197;-89
2022/03/14 05:51:13;;;;;;;14.52;8.85;;;2.00;91.40;;;;;;5074639;28;20269;-91
2022/03/14 05:53:42;;;;;;;12.95;9.65;;;2.00;90.80;;;;;;5075283;28;20197;-89
2022/03/14 05:56:10;;;;;;;15.50;8.73;;;1.90;90.70;;;;;;5076181;28;20254;-87
2022/03/14 05:58:38;;;;;;;15.45;9.48;;;1.90;91.70;;;;;;5078676;28;20812;-88
2022/03/14 06:01:06;;;;;;;15.88;9.82;;;1.90;91.30;;;;;;5090830;28;20188;-89
2022/03/14 06:03:36;;;;;;;13.75;9.45;;;1.90;91.40;;;;;;5092197;28;20205;-87
2022/03/14 06:06:05;;;;;;;12.65;8.70;;;2.00;91.20;;;;;;5089989;28;20280;-90
2022/03/14 06:08:32;;;;;;;12.55;9.40;;;2.00;90.90;;;;;;5090456;28;20257;-90
2022/03/14 06:11:02;;;;;;;13.20;10.13;;;2.00;90.70;;;;;;5087409;28;20221;-88
2022/03/14 06:13:30;;;;;;;14.30;9.55;;;2.00;90.60;;;;;;5088234;28;20277;-86
2022/03/14 06:15:58;;;;;;;14.38;9.05;;;2.10;90.50;;;;;;5089824;28;20382;-89
2022/03/14 06:18:32;;;;;;;16.42;10.98;;;2.00;92.50;;;;;;5090182;28;20208;-89
2022/03/14 06:21:02;;;;;;;13.20;9.20;;;2.00;94.10;;;;;;5090307;28;20217;-89
2022/03/14 06:23:30;;;;;;;19.27;10.48;;;2.10;94.00;;;;;;5089399;28;20394;-89
2022/03/14 06:25:58;;;;;;;13.30;10.02;;;2.20;95.40;;;;;;5086536;28;20217;-84
2022/03/14 06:28:26;;;;;;;14.65;9.68;;;2.20;95.00;;;;;;5080927;28;20199;-85
2022/03/14 06:30:54;;;;;;;13.20;9.55;;;2.20;96.20;;;;;;5078993;28;20956;-84
2022/03/14 06:33:24;;;;;;;16.05;10.10;;;2.30;95.80;;;;;;5080664;28;20208;-87
2022/03/14 06:35:52;;;;;;;15.55;10.00;;;2.40;95.70;;;;;;5085551;28;20209;-85
2022/03/14 06:38:21;;;;;;;12.90;9.55;;;2.50;93.70;;;;;;5083813;28;20224;-84
2022/03/14 06:40:51;;;;;;;17.15;10.02;;;2.60;94.00;;;;;;5081176;28;20403;-84
2022/03/14 06:43:22;;;;;;;14.55;9.38;;;2.60;94.20;;;;;;5077823;28;20205;-85
2022/03/14 06:45:50;;;;;;;15.43;10.10;;;2.70;95.50;;;;;;5074263;28;20213;-84
2022/03/14 06:48:21;;;;;;;16.77;11.45;;;2.80;95.40;;;;;;5072304;28;20193;-84
2022/03/14 06:50:49;;;;;;;15.07;11.65;;;2.90;94.20;;;;;;5071961;28;20185;-82
2022/03/14 06:53:17;;;;;;;13.82;10.27;;;3.00;92.50;;;;;;5071181;28;20205;-83
2022/03/14 06:55:47;;;;;;;14.65;10.13;;;3.10;91.50;;;;;;5075238;28;20847;-83
2022/03/14 06:58:15;;;;;;;14.88;9.48;;;3.20;91.10;;;;;;5077025;28;20205;-83
2022/03/14 07:00:45;;;;;;;12.57;9.85;;;3.20;90.70;;;;;;5079478;28;20306;-85
2022/03/14 07:03:15;;;;;;;17.73;11.80;;;3.30;90.50;;;;;;5077888;28;20205;-85
2022/03/14 07:16:24;;;;;;;13.30;9.43;;;3.60;90.00;;;;;;4983400;23;20259;-67
2022/03/14 07:18:52;;;;;;;18.50;11.90;;;3.70;90.10;;;;;;5051439;28;20784;-66
2022/03/14 07:21:21;;;;;;;13.80;10.23;;;3.80;90.10;;;;;;5043897;28;20358;-65
2022/03/14 07:23:49;;;;;;;14.18;9.77;;;3.90;90.10;;;;;;5054076;28;20204;-67
2022/03/14 07:26:17;;;;;;;13.70;10.10;;;3.90;90.20;;;;;;5049486;28;20210;-66
2022/03/14 07:28:47;;;;;;;13.77;9.82;;;4.00;89.80;;;;;;5037097;28;20212;-66
2022/03/14 07:31:15;;;;;;;14.65;10.10;;;4.00;89.40;;;;;;5037916;28;20228;-67
2022/03/14 07:33:45;;;;;;;19.10;10.35;;;4.10;88.20;;;;;;5037548;28;20225;-66
2022/03/14 07:36:13;;;;;;;13.57;10.35;;;4.10;87.70;;;;;;5038018;28;20492;-67
2022/03/14 07:38:41;;;;;;;13.70;9.75;;;4.10;87.90;;;;;;5038364;28;20204;-67
2022/03/14 07:41:10;;;;;;;13.15;9.48;;;4.20;87.70;;;;;;5037443;28;20586;-70
2022/03/14 07:43:38;;;;;;;12.82;9.77;;;4.20;87.50;;;;;;5037342;28;20668;-67
2022/03/14 07:46:06;;;;;;;16.30;9.27;;;4.30;87.70;;;;;;5048576;28;20223;-68
2022/03/14 07:48:35;;;;;;;14.27;9.43;;;4.40;87.80;;;;;;5058059;28;20465;-68
2022/03/14 07:51:04;;;;;;;12.88;9.35;;;4.40;87.10;;;;;;5057329;28;20715;-72
2022/03/14 07:53:32;;;;;;;18.00;10.48;;;4.50;87.30;;;;;;5057215;28;20197;-68
2022/03/14 07:55:59;;;;;;;17.60;10.73;;;4.50;87.00;;;;;;5056834;28;20582;-68
2022/03/14 07:58:27;;;;;;;13.32;9.38;;;4.60;87.10;;;;;;5057516;28;20201;-68
2022/03/14 08:00:59;;;;;;;11.43;9.10;;;4.70;87.20;;;;;;5061495;28;20405;-68
2022/03/14 08:03:27;;;;;;;14.18;9.18;;;4.80;87.30;;;;;;5060214;28;20205;-68
2022/03/14 08:06:00;;;;;;;12.52;9.75;;;4.90;87.20;;;;;;5060919;28;20207;-68
2022/03/14 08:08:29;;;;;;;13.52;9.85;;;5.00;87.00;;;;;;5059523;28;20219;-68
2022/03/14 08:11:01;;;;;;;13.68;9.50;;;5.00;86.90;;;;;;5058944;28;20499;-74
2022/03/14 08:13:34;;;;;;;19.02;9.95;;;5.10;86.70;;;;;;5059981;28;20684;-69
2022/03/14 08:16:02;;;;;;;15.05;9.52;;;5.20;89.20;;;;;;5064721;28;20308;-67
2022/03/14 08:18:30;;;;;;;13.25;9.93;;;5.40;87.40;;;;;;5056156;28;20523;-72
2022/03/14 08:20:58;;;;;;;16.35;8.82;;;5.50;85.40;;;;;;5062538;28;20216;-75
2022/03/14 08:23:26;;;;;;;10.98;8.05;;;5.60;85.10;;;;;;5080773;28;20284;-76
2022/03/14 08:25:56;;;;;;;14.07;10.00;;;5.80;84.30;;;;;;5061570;28;20475;-72
2022/03/14 08:28:23;;;;;;;15.85;9.50;;;5.90;84.20;;;;;;5050596;28;20277;-72
2022/03/14 08:30:52;;;;;;;11.57;10.20;;;6.00;84.60;;;;;;5051876;28;20245;-75
2022/03/14 08:33:22;;;;;;;15.77;8.57;;;6.10;84.80;;;;;;5049118;28;20201;-73
2022/03/14 08:35:50;;;;;;;12.35;9.73;;;6.20;84.50;;;;;;5049554;28;20366;-75
2022/03/14 08:38:18;;;;;;;12.57;9.82;;;6.20;84.20;;;;;;5048048;28;20208;-75
2022/03/14 08:40:46;;;;;;;20.08;9.85;;;6.30;83.80;;;;;;5054645;28;20333;-73
2022/03/14 08:43:15;;;;;;;15.23;9.43;;;6.40;83.80;;;;;;5060897;28;20252;-75
2022/03/14 08:45:43;;;;;;;11.65;9.02;;;6.40;83.70;;;;;;5063376;28;20562;-73
2022/03/14 08:48:12;;;;;;;12.18;8.65;;;6.50;83.80;;;;;;5070082;28;20218;-69
2022/03/14 08:50:41;;;;;;;31.75;11.27;;;6.60;84.40;;;;;;5072540;28;20443;-70
2022/03/14 08:53:09;;;;;;;15.07;10.05;;;6.80;86.30;;;;;;5064727;28;20201;-70
2022/03/14 08:55:37;;;;;;;13.30;9.77;;;7.00;86.60;;;;;;5064659;28;20215;-69
2022/03/14 08:58:04;;;;;;;11.93;9.90;;;7.20;86.90;;;;;;5060760;28;20220;-71
2022/03/14 09:00:36;;;;;;;14.00;10.50;;;7.40;87.20;;;;;;5044192;28;20271;-72
2022/03/14 09:03:05;;;;;;;12.27;10.10;;;7.40;85.30;;;;;;5043731;28;20206;-72
2022/03/14 09:05:33;;;;;;;12.02;9.45;;;7.50;84.10;;;;;;5046665;28;20209;-72
2022/03/14 09:08:01;;;;;;;13.50;10.15;;;7.50;84.00;;;;;;5046168;28;20244;-69
2022/03/14 09:10:31;;;;;;;15.80;10.18;;;7.60;85.30;;;;;;5044522;28;20730;-69
2022/03/14 09:12:59;;;;;;;12.68;9.65;;;7.60;83.90;;;;;;5041482;28;20205;-73
2022/03/14 09:15:26;;;;;;;10.73;9.63;;;7.60;83.30;;;;;;5042653;28;20206;-72
2022/03/14 09:17:59;;;;;;;12.77;10.77;;;7.60;83.40;;;;;;5040693;28;20201;-72
2022/03/14 09:20:28;;;;;;;17.77;10.68;;;7.70;83.60;;;;;;5040513;28;20233;-70
2022/03/14 09:22:56;;;;;;;17.05;10.60;;;7.80;82.90;;;;;;5041291;28;20234;-71
2022/03/14 09:25:25;;;;;;;16.30;10.73;;;7.70;83.10;;;;;;5040830;28;20658;-69
2022/03/14 09:27:53;;;;;;;12.75;9.20;;;7.70;83.00;;;;;;5040686;28;20209;-68
2022/03/14 09:30:23;;;;;;;14.32;11.02;;;7.70;83.80;;;;;;5041565;28;20225;-68
2022/03/14 09:32:51;;;;;;;14.52;10.35;;;7.80;84.40;;;;;;5046655;28;20201;-73
2022/03/14 09:35:22;;;;;;;12.23;10.43;;;7.80;84.40;;;;;;5046389;28;20205;-71
2022/03/14 09:37:50;;;;;;;13.68;10.43;;;7.90;84.90;;;;;;5046677;28;20292;-71
2022/03/14 09:40:21;;;;;;;13.30;10.63;;;8.00;84.70;;;;;;5047044;28;20786;-72
2022/03/14 09:42:50;;;;;;;13.77;11.15;;;8.00;84.90;;;;;;5046778;28;20273;-71
2022/03/14 09:45:20;;;;;;;12.48;10.50;;;8.00;85.20;;;;;;5045019;28;20225;-71
2022/03/14 09:47:51;;;;;;;16.73;10.80;;;8.10;85.40;;;;;;5045784;28;20237;-71
2022/03/14 09:50:26;;;;;;;11.75;10.30;;;8.20;85.00;;;;;;5045677;28;20792;-72
2022/03/14 09:52:55;;;;;;;13.48;10.10;;;8.10;85.70;;;;;;5045208;28;20201;-71
2022/03/14 09:55:23;;;;;;;11.55;9.88;;;8.10;86.80;;;;;;5045944;28;20704;-74
2022/03/14 09:57:52;;;;;;;15.80;9.90;;;8.20;87.80;;;;;;5045793;28;20209;-72
2022/03/14 10:00:20;;;;;;;15.20;11.43;;;8.30;87.90;;;;;;5044627;28;20806;-74
2022/03/14 10:02:48;;;;;;;13.32;10.20;;;8.30;88.20;;;;;;5044942;28;20226;-75
2022/03/14 10:05:18;;;;;;;15.52;9.05;;;8.40;89.70;;;;;;5044823;28;20252;-73
2022/03/14 10:07:47;;;;;;;10.95;9.52;;;8.50;90.10;;;;;;5045981;28;20267;-75
2022/03/14 10:10:15;;;;;;;14.02;10.05;;;8.80;90.20;;;;;;5044634;28;20260;-70
2022/03/14 10:12:49;;;;;;;15.20;11.07;;;9.00;90.30;;;;;;5043922;28;20288;-72
2022/03/14 10:15:17;;;;;;;11.52;8.77;;;9.40;90.50;;;;;;5044207;28;20216;-74
2022/03/14 10:17:45;;;;;;;15.40;10.45;;;9.80;90.40;;;;;;5044079;28;20289;-72
2022/03/14 10:20:16;;;;;;;16.05;10.82;;;10.10;89.90;;;;;;5044075;28;20224;-73
2022/03/14 10:22:45;;;;;;;10.40;9.30;;;10.40;89.90;;;;;;5043502;28;20225;-70
2022/03/14 10:25:16;;;;;;;15.63;10.20;;;10.70;89.60;;;;;;5043866;28;20204;-72
2022/03/14 10:27:46;;;;;;;11.38;9.77;;;11.00;89.10;;;;;;5043212;28;20202;-75
2022/03/14 10:30:33;;;;;;;12.77;9.63;;;11.20;89.00;;;;;;5045524;28;20253;-73
2022/03/14 10:33:13;;;;;;;10.10;9.00;;;11.30;89.40;;;;;;5044425;28;20216;-73
2022/03/14 10:35:42;;;;;;;11.88;10.02;;;11.40;89.30;;;;;;5047299;28;20364;-74
2022/03/14 10:38:12;;;;;;;14.60;10.27;;;11.40;89.50;;;;;;5044886;28;20738;-77
2022/03/14 10:40:43;;;;;;;17.90;10.53;;;11.50;89.70;;;;;;5049229;28;20785;-72
2022/03/14 10:43:24;;;;;;;13.33;10.20;;;11.50;89.40;;;;;;5044279;28;20775;-68
2022/03/14 10:45:53;;;;;;;14.90;10.33;;;11.50;89.10;;;;;;5044958;28;21010;-67
2022/03/14 10:48:35;;;;;;;14.70;11.10;;;11.60;89.50;;;;;;5046057;28;20459;-73
2022/03/14 10:51:04;;;;;;;11.47;9.83;;;11.60;89.80;;;;;;5051607;28;20551;-72
2022/03/14 10:53:34;;;;;;;12.23;9.77;;;11.60;90.10;;;;;;5052007;28;20491;-72
2022/03/14 10:56:04;;;;;;;12.77;10.60;;;11.50;90.10;;;;;;5041100;28;20781;-71
2022/03/14 10:58:33;;;;;;;13.20;10.80;;;11.60;90.30;;;;;;5037997;28;20460;-73
2022/03/14 11:01:02;;;;;;;13.70;10.20;;;11.70;90.30;;;;;;5037606;28;20832;-71
2022/03/14 11:03:33;;;;;;;12.97;11.10;;;11.70;90.40;;;;;;5037594;28;20476;-72
2022/03/14 11:06:03;;;;;;;12.53;10.20;;;11.60;90.40;;;;;;5042906;28;20950;-73
2022/03/14 11:08:33;;;;;;;12.27;9.57;;;11.50;90.50;;;;;;5044357;28;20851;-72
2022/03/14 11:11:04;;;;;;;11.40;9.60;;;11.40;90.60;;;;;;5057280;28;20470;-71
2022/03/14 11:13:38;;;;;;;14.00;9.55;;;11.40;90.70;;;;;;5047157;28;20440;-72
2022/03/14 11:16:11;;;;;;;12.17;10.20;;;11.40;90.90;;;;;;5047680;28;20525;-72
2022/03/14 11:18:39;;;;;;;11.77;10.52;;;11.30;91.20;;;;;;5046837;28;20494;-71
2022/03/14 11:21:08;;;;;;;17.15;11.50;;;11.20;91.30;;;;;;5047628;28;20213;-73
2022/03/14 11:23:38;;;;;;;14.45;9.95;;;11.20;91.60;;;;;;5049043;28;20454;-74
2022/03/14 11:26:11;;;;;;;12.63;9.53;;;11.20;91.70;;;;;;5051805;28;20453;-74
2022/03/14 11:28:41;;;;;;;16.77;11.17;;;11.20;91.90;;;;;;5048292;28;20431;-73
2022/03/14 11:31:09;;;;;;;18.42;11.55;;;11.20;91.90;;;;;;5045744;28;20982;-73
2022/03/14 11:33:43;;;;;;;12.20;9.50;;;11.20;92.00;;;;;;5045739;28;20432;-69
2022/03/14 11:36:12;;;;;;;13.95;10.60;;;11.20;92.20;;;;;;5048383;28;20862;-70
2022/03/14 11:38:40;;;;;;;13.90;10.07;;;11.30;92.40;;;;;;5047383;28;20198;-73
2022/03/14 11:41:10;;;;;;;12.10;10.60;;;11.30;92.50;;;;;;5047354;28;20883;-71
2022/03/14 11:43:42;;;;;;;11.93;9.82;;;11.30;92.60;;;;;;5049327;28;20219;-72
2022/03/14 11:46:31;;;;;;;13.03;9.90;;;11.30;92.70;;;;;;5047171;28;20213;-72
2022/03/14 11:49:12;;;;;;;11.93;9.85;;;11.30;93.00;;;;;;5045221;28;20432;-70
2022/03/14 11:51:41;;;;;;;12.40;10.43;;;11.20;93.30;;;;;;5045968;28;20481;-72
2022/03/14 11:54:11;;;;;;;12.98;10.32;;;11.20;93.60;;;;;;5046992;28;20451;-71
2022/03/14 11:56:53;;;;;;;12.20;10.87;;;11.20;93.70;;;;;;5045125;28;20190;-71
2022/03/14 11:59:28;;;;;;;15.43;10.23;;;11.30;94.00;;;;;;5048242;28;20500;-71
2022/03/14 12:02:00;;;;;;;11.07;9.82;;;11.30;94.10;;;;;;5051271;28;20684;-69
2022/03/14 12:04:30;;;;;;;14.07;10.47;;;11.50;94.20;;;;;;5048597;28;20287;-69
2022/03/14 12:07:16;;;;;;;14.73;10.43;;;11.60;94.30;;;;;;5048389;28;20436;-68
2022/03/14 12:09:49;;;;;;;11.53;9.33;;;11.70;94.50;;;;;;5050482;28;20533;-69
2022/03/14 12:12:29;;;;;;;10.87;9.77;;;11.80;94.30;;;;;;5050264;28;20436;-68
2022/03/14 12:14:59;;;;;;;16.23;9.40;;;12.00;94.40;;;;;;5052475;28;20527;-69
2022/03/14 12:17:29;;;;;;;10.03;8.57;;;12.10;94.60;;;;;;5051581;28;20444;-70
2022/03/14 12:20:00;;;;;;;11.20;9.87;;;12.10;96.30;;;;;;5054128;28;20733;-68
2022/03/14 12:22:43;;;;;;;11.33;10.23;;;12.20;96.40;;;;;;5042820;28;20559;-68
2022/03/14 12:25:14;;;;;;;10.40;8.00;;;12.30;97.90;;;;;;5042659;28;20483;-72
2022/03/14 12:27:44;;;;;;;8.87;7.97;;;12.30;99.20;;;;;;5043884;28;20432;-72
2022/03/14 12:30:32;;;;;;;9.43;7.90;;;12.30;99.70;;;;;;5044884;28;20840;-73
2022/03/14 12:33:03;;;;;;;8.77;7.93;;;12.30;99.90;;;;;;5044371;28;20440;-73
2022/03/14 12:35:34;;;;;;;8.60;7.70;;;12.20;99.90;;;;;;5042234;28;20484;-73
2022/03/14 12:38:14;;;;;;;10.47;8.53;;;12.10;99.90;;;;;;5040094;28;20566;-71
2022/03/14 12:40:49;;;;;;;11.20;10.07;;;12.10;99.90;;;;;;5044835;28;20838;-70
2022/03/14 12:43:24;;;;;;;9.90;8.93;;;12.00;99.90;;;;;;5058035;28;21006;-70
2022/03/14 12:45:53;;;;;;;15.70;10.40;;;12.00;99.90;;;;;;5057350;28;20451;-70
2022/03/14 12:48:24;;;;;;;11.57;10.47;;;11.90;99.30;;;;;;5037716;28;20526;-71
2022/03/14 12:50:57;;;;;;;10.00;9.00;;;11.90;99.90;;;;;;5037203;28;20494;-65
2022/03/14 12:53:43;;;;;;;10.47;9.13;;;11.90;99.90;;;;;;5036952;28;20437;-67
2022/03/14 12:56:17;;;;;;;11.17;10.07;;;12.00;99.90;;;;;;5036898;28;20912;-69
2022/03/14 12:59:07;;;;;;;11.50;10.30;;;12.00;99.90;;;;;;5037443;28;20437;-70
2022/03/14 13:01:36;;;;;;;17.93;10.43;;;12.00;99.90;;;;;;5040114;28;20535;-71
2022/03/14 13:04:13;;;;;;;15.27;10.10;;;12.10;99.90;;;;;;5040566;28;20486;-70
2022/03/14 13:06:41;;;;;;;11.93;10.70;;;12.10;99.90;;;;;;5040830;28;20440;-70
2022/03/14 13:09:09;;;;;;;12.50;10.63;;;12.10;99.90;;;;;;5040473;28;20452;-69
2022/03/14 13:11:40;;;;;;;11.63;10.40;;;12.10;99.90;;;;;;5040877;28;20705;-72
2022/03/14 13:14:12;;;;;;;15.57;12.07;;;12.10;99.90;;;;;;5044554;28;20458;-72